Time;durP1;ratioP1;P1;durP2;ratioP2;P2;SDS_P1;SDS_P2;PMS_P1;PMS_P2;Temp;Humidity;BMP_temperature;BMP_pressure;BME280_temperature;BME280_humidity;BME280_pressure;Samples;Min_cycle;Max_cycle;Signal;HPM_P1;HPM_P2
2023/11/24 00:00:49;;;;;;;1.20;1.00;;;7.00;99.90;;;;;;5098645;28;20725;-40
2023/11/24 00:03:14;;;;;;;1.50;1.40;;;6.90;99.90;;;;;;5098009;28;20473;-41
2023/11/24 00:05:40;;;;;;;1.70;1.30;;;6.80;99.90;;;;;;5098379;28;20168;-39
2023/11/24 00:08:06;;;;;;;1.77;1.30;;;6.80;99.90;;;;;;5097314;28;20181;-38
2023/11/24 00:10:32;;;;;;;6.03;1.40;;;6.80;99.90;;;;;;5062696;28;20181;-39
2023/11/24 00:12:57;;;;;;;1.43;1.10;;;6.80;99.90;;;;;;5097809;28;20273;-39
2023/11/24 00:15:23;;;;;;;1.50;1.40;;;6.70;1.00;;;;;;5097392;28;20191;-43
2023/11/24 00:17:50;;;;;;;6.37;1.50;;;6.70;1.00;;;;;;5097731;28;20469;-39
2023/11/24 00:20:16;;;;;;;2.60;1.50;;;6.70;1.00;;;;;;5097531;28;20912;-40
2023/11/24 00:22:42;;;;;;;1.70;1.40;;;6.80;1.00;;;;;;5096833;28;20509;-39
2023/11/24 00:25:09;;;;;;;2.03;1.50;;;6.70;1.00;;;;;;5097091;28;20426;-38
2023/11/24 00:27:35;;;;;;;2.93;1.70;;;6.70;1.00;;;;;;5078977;28;20887;-39
2023/11/24 00:30:07;;;;;;;2.07;1.30;;;6.70;1.00;;;;;;5096705;28;20440;-38
2023/11/24 00:32:33;;;;;;;1.40;1.03;;;6.70;1.00;;;;;;5096678;28;20414;-39
2023/11/24 00:34:58;;;;;;;4.13;1.40;;;6.60;1.00;;;;;;5097224;28;20705;-39
2023/11/24 00:37:24;;;;;;;1.57;1.43;;;6.60;1.00;;;;;;5096733;28;20469;-39
2023/11/24 00:39:50;;;;;;;1.80;1.60;;;6.60;1.00;;;;;;5096735;28;20537;-39
2023/11/24 00:42:16;;;;;;;2.20;2.00;;;6.60;1.00;;;;;;5096276;28;20288;-40
2023/11/24 00:44:42;;;;;;;3.03;1.90;;;6.60;1.00;;;;;;5095408;28;20167;-40
2023/11/24 00:47:07;;;;;;;1.90;1.70;;;6.50;1.00;;;;;;5096011;28;20418;-38
2023/11/24 00:49:34;;;;;;;3.83;2.30;;;6.50;1.00;;;;;;5096195;28;20176;-39
2023/11/24 00:52:00;;;;;;;2.67;2.47;;;6.50;1.00;;;;;;5095897;28;20188;-39
2023/11/24 00:54:26;;;;;;;2.40;1.87;;;6.50;1.00;;;;;;5096640;28;20438;-38
2023/11/24 00:56:52;;;;;;;2.10;1.83;;;6.50;1.00;;;;;;5077937;28;20453;-39
2023/11/24 00:59:17;;;;;;;3.10;2.60;;;6.50;1.00;;;;;;5096381;28;20521;-38
2023/11/24 01:01:43;;;;;;;2.23;2.03;;;6.40;1.00;;;;;;5095944;28;20239;-39
2023/11/24 01:04:09;;;;;;;2.50;2.20;;;6.40;1.00;;;;;;5095005;28;20176;-39
2023/11/24 01:06:34;;;;;;;2.30;2.10;;;6.40;1.00;;;;;;5094621;28;20473;-40
2023/11/24 01:09:00;;;;;;;3.80;2.20;;;6.40;1.00;;;;;;5094324;28;20263;-45
2023/11/24 01:11:26;;;;;;;2.70;2.30;;;6.30;1.00;;;;;;5076778;28;20184;-39
2023/11/24 01:13:52;;;;;;;2.47;2.27;;;6.40;1.00;;;;;;5094461;28;20514;-41
2023/11/24 01:16:17;;;;;;;2.33;2.13;;;6.40;1.00;;;;;;5094963;28;20190;-41
2023/11/24 01:18:44;;;;;;;4.33;2.50;;;6.40;1.00;;;;;;5077749;28;20268;-39
2023/11/24 01:21:10;;;;;;;2.47;2.27;;;6.40;1.00;;;;;;5096343;28;20192;-37
2023/11/24 01:23:35;;;;;;;3.00;2.47;;;6.40;1.00;;;;;;5095818;28;20740;-39
2023/11/24 01:26:03;;;;;;;3.90;2.63;;;6.40;1.00;;;;;;5095674;28;20185;-40
2023/11/24 01:28:28;;;;;;;2.73;2.30;;;6.50;1.00;;;;;;5095191;28;20180;-39
2023/11/24 01:30:54;;;;;;;2.17;1.97;;;6.50;1.00;;;;;;5095486;28;20438;-40
2023/11/24 01:33:20;;;;;;;1.90;1.70;;;6.50;1.00;;;;;;5095042;28;20527;-39
2023/11/24 01:35:45;;;;;;;3.57;2.50;;;6.50;1.00;;;;;;5099457;28;20195;-40
2023/11/24 01:38:12;;;;;;;2.30;2.10;;;6.50;1.00;;;;;;5100037;28;20168;-37
2023/11/24 01:40:38;;;;;;;7.60;2.50;;;6.60;1.00;;;;;;5100216;28;20191;-40
2023/11/24 01:43:03;;;;;;;2.53;2.33;;;6.60;1.00;;;;;;5100282;28;20474;-40
2023/11/24 01:45:30;;;;;;;3.70;2.40;;;6.60;1.00;;;;;;5098944;28;20596;-40
2023/11/24 01:47:56;;;;;;;2.60;2.40;;;6.60;1.00;;;;;;5098487;28;20865;-38
2023/11/24 01:50:22;;;;;;;3.13;2.80;;;6.60;1.00;;;;;;5097449;28;20417;-38
2023/11/24 01:52:48;;;;;;;2.93;2.63;;;6.60;1.00;;;;;;5098210;28;20474;-49
2023/11/24 01:55:16;;;;;;;6.37;2.80;;;6.60;1.00;;;;;;5098137;28;20775;-39
2023/11/24 01:57:42;;;;;;;2.93;2.37;;;6.50;1.00;;;;;;5079896;28;20446;-39
2023/11/24 02:00:13;;;;;;;3.23;2.90;;;6.50;1.00;;;;;;5098440;28;20499;-42
2023/11/24 02:02:39;;;;;;;3.63;2.70;;;6.50;1.00;;;;;;5098482;28;20925;-40
2023/11/24 02:05:06;;;;;;;3.40;2.80;;;6.50;1.00;;;;;;5099351;28;20756;-39
2023/11/24 02:07:31;;;;;;;4.27;2.63;;;6.50;1.00;;;;;;5099528;28;20696;-39
2023/11/24 02:09:57;;;;;;;3.60;2.87;;;6.50;1.00;;;;;;5099578;28;20441;-40
2023/11/24 02:12:22;;;;;;;3.60;2.87;;;6.50;1.00;;;;;;5099472;28;20218;-40
2023/11/24 02:14:48;;;;;;;2.90;2.40;;;6.50;1.00;;;;;;5099616;28;20173;-42
2023/11/24 02:17:15;;;;;;;3.40;2.50;;;6.50;1.00;;;;;;5099470;28;20175;-40
2023/11/24 02:19:42;;;;;;;2.80;2.60;;;6.50;1.00;;;;;;5098998;28;20180;-38
2023/11/24 02:22:08;;;;;;;2.37;2.17;;;6.50;1.00;;;;;;5099255;28;20469;-40
2023/11/24 02:24:33;;;;;;;2.37;2.13;;;6.50;1.00;;;;;;5099531;28;20535;-39
2023/11/24 02:26:59;;;;;;;2.57;2.30;;;6.50;1.00;;;;;;5099533;28;20456;-39
2023/11/24 02:29:25;;;;;;;2.67;2.47;;;6.50;1.00;;;;;;5098966;28;20227;-37
2023/11/24 02:31:51;;;;;;;2.40;1.80;;;6.50;1.00;;;;;;5099010;28;20212;-38
2023/11/24 02:34:16;;;;;;;1.97;1.77;;;6.50;1.00;;;;;;5099074;28;20839;-39
2023/11/24 02:36:43;;;;;;;1.63;1.33;;;6.50;1.00;;;;;;5099053;28;20184;-41
2023/11/24 02:39:09;;;;;;;2.03;1.70;;;6.50;1.00;;;;;;5098485;28;20212;-38
2023/11/24 02:41:34;;;;;;;2.90;2.27;;;6.50;1.00;;;;;;5098812;28;20843;-40
2023/11/24 02:44:00;;;;;;;1.83;1.20;;;6.50;1.00;;;;;;5098482;28;20456;-39
2023/11/24 02:46:26;;;;;;;1.87;1.63;;;6.60;1.00;;;;;;5097917;28;20190;-40
2023/11/24 02:48:52;;;;;;;1.50;1.10;;;6.50;1.00;;;;;;5098879;28;20181;-39
2023/11/24 02:51:18;;;;;;;2.00;1.30;;;6.60;1.00;;;;;;5098876;28;20509;-41
2023/11/24 02:53:44;;;;;;;1.80;1.30;;;6.50;1.00;;;;;;5099032;28;20593;-39
2023/11/24 02:56:10;;;;;;;1.87;1.13;;;6.50;1.00;;;;;;5098685;28;20457;-39
2023/11/24 02:58:36;;;;;;;1.30;0.90;;;6.50;1.00;;;;;;5098538;28;20469;-39
2023/11/24 03:01:03;;;;;;;1.87;1.50;;;6.50;1.00;;;;;;5098621;28;20817;-41
2023/11/24 03:03:29;;;;;;;1.67;1.10;;;6.50;1.00;;;;;;5098072;28;20466;-39
2023/11/24 03:05:57;;;;;;;1.40;1.20;;;6.50;1.00;;;;;;5098563;28;20425;-40
2023/11/24 03:08:25;;;;;;;1.13;0.90;;;6.50;1.00;;;;;;5098056;28;20172;-38
2023/11/24 03:10:52;;;;;;;1.13;1.03;;;6.50;1.00;;;;;;5098621;28;20438;-39
2023/11/24 03:13:19;;;;;;;1.30;0.93;;;6.50;1.00;;;;;;5098056;28;20446;-38
2023/11/24 03:15:45;;;;;;;1.20;1.00;;;6.40;1.00;;;;;;5098141;28;20468;-39
2023/11/24 03:18:12;;;;;;;1.43;1.07;;;6.50;1.00;;;;;;5098433;28;20438;-39
2023/11/24 03:20:38;;;;;;;1.57;1.00;;;6.50;1.00;;;;;;5098516;28;20173;-39
2023/11/24 03:23:04;;;;;;;1.07;0.93;;;6.50;1.00;;;;;;5097869;28;20858;-38
2023/11/24 03:25:30;;;;;;;1.83;0.80;;;6.40;1.00;;;;;;5098591;28;20187;-39
2023/11/24 03:27:56;;;;;;;2.13;1.20;;;6.50;1.00;;;;;;5097852;28;20431;-40
2023/11/24 03:30:24;;;;;;;1.33;0.90;;;6.50;1.00;;;;;;5098571;28;20237;-39
2023/11/24 03:32:49;;;;;;;3.10;1.00;;;6.50;1.00;;;;;;5080902;28;20530;-40
2023/11/24 03:35:15;;;;;;;1.30;0.90;;;6.50;1.00;;;;;;5098013;28;20446;-39
2023/11/24 03:37:42;;;;;;;1.00;0.70;;;6.50;1.00;;;;;;5096664;28;20184;-39
2023/11/24 03:40:09;;;;;;;1.97;0.90;;;6.50;1.00;;;;;;5097201;28;20426;-40
2023/11/24 03:42:34;;;;;;;1.20;0.70;;;6.50;1.00;;;;;;5079878;28;20466;-38
2023/11/24 03:45:01;;;;;;;1.60;1.10;;;6.40;1.00;;;;;;5097579;28;20430;-38
2023/11/24 03:47:28;;;;;;;1.40;0.90;;;6.50;1.00;;;;;;5096787;28;20172;-39
2023/11/24 03:49:54;;;;;;;1.00;0.60;;;6.50;1.00;;;;;;5097193;28;20756;-38
2023/11/24 03:52:20;;;;;;;1.70;0.77;;;6.50;1.00;;;;;;5078696;28;20465;-41
2023/11/24 03:54:46;;;;;;;1.10;0.70;;;6.40;1.00;;;;;;5095571;28;20445;-38
2023/11/24 03:57:11;;;;;;;1.00;0.60;;;6.50;1.00;;;;;;5095166;28;20241;-40
2023/11/24 03:59:37;;;;;;;1.17;0.80;;;6.40;1.00;;;;;;5095785;28;20192;-38
2023/11/24 04:02:03;;;;;;;1.00;0.87;;;6.40;1.00;;;;;;5094374;28;20761;-39
2023/11/24 04:04:28;;;;;;;1.30;0.90;;;6.40;1.00;;;;;;5094376;28;20181;-39
2023/11/24 04:06:54;;;;;;;1.23;0.93;;;6.40;1.00;;;;;;5094834;28;20533;-38
2023/11/24 04:09:20;;;;;;;1.00;0.70;;;6.40;1.00;;;;;;5095503;28;20172;-40
2023/11/24 04:11:46;;;;;;;1.10;0.80;;;6.40;1.00;;;;;;5095872;28;20195;-39
2023/11/24 04:14:12;;;;;;;1.50;0.70;;;6.50;1.00;;;;;;5095749;28;20422;-38
2023/11/24 04:16:37;;;;;;;1.40;0.90;;;6.40;1.00;;;;;;5096256;28;20565;-40
2023/11/24 04:19:05;;;;;;;1.13;0.93;;;6.40;1.00;;;;;;5096831;28;20256;-38
2023/11/24 04:21:30;;;;;;;1.23;0.70;;;6.40;1.00;;;;;;5096981;28;20168;-39
2023/11/24 04:23:56;;;;;;;1.00;0.60;;;6.40;1.00;;;;;;5097343;28;20422;-39
2023/11/24 04:26:22;;;;;;;0.90;0.70;;;6.40;1.00;;;;;;5096736;28;20184;-41
2023/11/24 04:28:48;;;;;;;1.47;0.80;;;6.40;1.00;;;;;;5097122;28;20180;-39
2023/11/24 04:31:13;;;;;;;0.90;0.50;;;6.40;1.00;;;;;;5097219;28;20192;-38
2023/11/24 04:33:40;;;;;;;1.50;0.70;;;6.40;1.00;;;;;;5097196;28;20233;-41
2023/11/24 04:36:07;;;;;;;0.97;0.73;;;6.40;1.00;;;;;;5096188;28;20569;-40
2023/11/24 04:38:33;;;;;;;1.13;0.80;;;6.50;1.00;;;;;;5095299;28;20525;-39
2023/11/24 04:41:00;;;;;;;0.83;0.50;;;6.40;1.00;;;;;;5096098;28;20517;-39
2023/11/24 04:43:26;;;;;;;1.00;0.60;;;6.40;1.00;;;;;;5098266;28;20243;-39
2023/11/24 04:45:52;;;;;;;0.90;0.60;;;6.50;1.00;;;;;;5099407;28;20411;-40
2023/11/24 04:48:17;;;;;;;1.07;0.90;;;6.50;1.00;;;;;;5098536;28;20403;-41
2023/11/24 04:50:43;;;;;;;0.93;0.70;;;6.50;1.00;;;;;;5098321;28;20217;-39
2023/11/24 04:53:09;;;;;;;0.77;0.60;;;6.50;1.00;;;;;;5095819;28;20232;-39
2023/11/24 04:55:34;;;;;;;1.23;0.90;;;6.40;1.00;;;;;;5095141;28;20187;-41
2023/11/24 04:58:00;;;;;;;1.20;0.70;;;6.50;1.00;;;;;;5097391;28;20175;-38
2023/11/24 05:00:25;;;;;;;1.10;0.70;;;6.50;1.00;;;;;;5097038;28;20521;-40
2023/11/24 05:02:51;;;;;;;0.90;0.60;;;6.50;1.00;;;;;;5095229;28;20219;-38
2023/11/24 05:05:17;;;;;;;0.90;0.50;;;6.60;1.00;;;;;;5097944;28;20188;-39
2023/11/24 05:07:43;;;;;;;4.33;0.83;;;6.60;1.00;;;;;;5095974;28;20265;-40
2023/11/24 05:10:08;;;;;;;0.90;0.63;;;6.60;1.00;;;;;;5092942;28;20422;-37
2023/11/24 05:12:37;;;;;;;0.97;0.73;;;6.70;1.00;;;;;;5093502;28;20425;-41
2023/11/24 05:15:08;;;;;;;1.00;0.80;;;6.60;1.00;;;;;;5076216;28;20180;-39
2023/11/24 05:17:34;;;;;;;3.27;0.80;;;6.60;1.00;;;;;;5092989;28;20570;-39
2023/11/24 05:20:00;;;;;;;1.07;0.70;;;6.60;1.00;;;;;;5092205;28;20427;-38
2023/11/24 05:22:26;;;;;;;2.03;0.80;;;6.70;1.00;;;;;;5092142;28;20500;-41
2023/11/24 05:24:52;;;;;;;1.40;0.80;;;6.60;1.00;;;;;;5075357;28;20410;-37
2023/11/24 05:27:17;;;;;;;1.20;1.03;;;6.60;1.00;;;;;;5094057;28;20195;-41
2023/11/24 05:30:07;;;;;;;1.50;1.40;;;6.70;1.00;;;;;;5094454;28;20176;-39
2023/11/24 05:32:34;;;;;;;2.13;1.50;;;6.70;1.00;;;;;;5093560;28;20180;-40
2023/11/24 05:35:01;;;;;;;3.80;1.30;;;6.70;1.00;;;;;;5093756;28;20426;-39
2023/11/24 05:37:27;;;;;;;3.83;1.37;;;6.70;1.00;;;;;;5094561;28;20891;-40
2023/11/24 05:39:52;;;;;;;2.27;1.40;;;6.80;1.00;;;;;;5094529;28;20809;-39
2023/11/24 05:42:18;;;;;;;1.70;1.10;;;6.70;1.00;;;;;;5094906;28;20511;-38
2023/11/24 05:44:44;;;;;;;4.30;1.10;;;6.60;1.00;;;;;;5093874;28;20181;-40
2023/11/24 05:47:10;;;;;;;2.23;1.40;;;6.50;1.00;;;;;;5095254;28;20243;-38
2023/11/24 05:49:35;;;;;;;2.40;1.10;;;6.40;1.00;;;;;;5095172;28;20176;-39
2023/11/24 05:52:01;;;;;;;3.43;1.53;;;6.40;1.00;;;;;;5095412;28;20288;-39
2023/11/24 05:54:26;;;;;;;5.30;1.70;;;6.30;1.00;;;;;;5094784;28;20188;-40
2023/11/24 05:56:52;;;;;;;6.90;1.80;;;6.30;1.00;;;;;;5094134;28;20577;-39
2023/11/24 05:59:18;;;;;;;3.10;1.60;;;6.30;1.00;;;;;;5094305;28;20565;-42
2023/11/24 06:01:44;;;;;;;3.50;2.43;;;6.30;1.00;;;;;;5091471;28;20188;-40
2023/11/24 06:04:09;;;;;;;2.83;1.40;;;6.30;1.00;;;;;;5092560;28;20177;-39
2023/11/24 06:06:36;;;;;;;4.83;3.20;;;6.30;1.00;;;;;;5090933;28;20888;-40
2023/11/24 06:09:06;;;;;;;2.47;2.20;;;6.20;1.00;;;;;;5089277;28;20640;-38
2023/11/24 06:11:31;;;;;;;2.23;1.70;;;6.20;1.00;;;;;;5088872;28;20530;-39
2023/11/24 06:13:57;;;;;;;1.77;1.53;;;6.20;1.00;;;;;;5088878;28;20438;-39
2023/11/24 06:16:23;;;;;;;8.03;4.67;;;6.10;1.00;;;;;;5089392;28;20493;-39
2023/11/24 06:18:48;;;;;;;3.90;2.33;;;6.10;1.00;;;;;;5070592;28;20176;-42
2023/11/24 06:21:14;;;;;;;4.60;2.30;;;6.10;1.00;;;;;;5089998;28;20203;-39
2023/11/24 06:23:40;;;;;;;4.87;3.33;;;6.10;1.00;;;;;;5094486;28;20223;-38
2023/11/24 06:26:08;;;;;;;5.10;3.43;;;6.00;1.00;;;;;;5093233;28;20180;-39
2023/11/24 06:28:34;;;;;;;3.07;2.43;;;6.00;1.00;;;;;;5092434;28;20196;-39
2023/11/24 06:31:00;;;;;;;6.83;2.93;;;6.10;1.00;;;;;;5093976;28;20411;-40
2023/11/24 06:33:26;;;;;;;1.93;1.23;;;6.00;1.00;;;;;;5092479;28;20172;-39
2023/11/24 06:35:53;;;;;;;2.97;1.53;;;6.00;1.00;;;;;;5093989;28;20486;-38
2023/11/24 06:38:18;;;;;;;1.67;1.20;;;6.10;1.00;;;;;;5092663;28;20430;-40
2023/11/24 06:40:44;;;;;;;3.40;1.70;;;6.00;1.00;;;;;;5093920;28;20453;-39
2023/11/24 06:43:09;;;;;;;3.67;1.40;;;6.10;1.00;;;;;;5094288;28;20292;-39
2023/11/24 06:45:35;;;;;;;3.40;1.43;;;6.00;1.00;;;;;;5093938;28;20365;-38
2023/11/24 06:48:01;;;;;;;2.60;1.30;;;6.10;1.00;;;;;;5094848;28;20210;-41
2023/11/24 06:50:26;;;;;;;5.60;1.70;;;6.10;1.00;;;;;;5093607;28;20581;-38
2023/11/24 06:52:52;;;;;;;3.33;1.37;;;6.00;1.00;;;;;;5093158;28;20278;-39
2023/11/24 06:55:18;;;;;;;3.23;2.07;;;6.00;1.00;;;;;;5094536;28;20496;-40
2023/11/24 06:57:44;;;;;;;7.07;2.10;;;6.10;1.00;;;;;;5094751;28;20168;-39
2023/11/24 07:00:16;;;;;;;4.73;2.27;;;6.10;1.00;;;;;;5091447;28;20543;-41
2023/11/24 07:02:41;;;;;;;1.80;1.60;;;6.10;1.00;;;;;;5075299;28;20204;-38
2023/11/24 07:05:09;;;;;;;4.50;1.90;;;6.20;1.00;;;;;;5093448;28;20430;-40
2023/11/24 07:07:34;;;;;;;5.63;2.67;;;6.10;1.00;;;;;;5094735;28;20180;-38
2023/11/24 07:10:00;;;;;;;4.77;2.80;;;6.20;1.00;;;;;;5095473;28;20474;-39
2023/11/24 07:12:25;;;;;;;3.50;2.20;;;6.10;1.00;;;;;;5095479;28;20510;-40
2023/11/24 07:14:51;;;;;;;3.23;1.87;;;6.20;1.00;;;;;;5094715;28;20211;-38
2023/11/24 07:17:17;;;;;;;3.13;1.97;;;6.20;1.00;;;;;;5093444;28;20229;-40
2023/11/24 07:19:42;;;;;;;4.23;1.90;;;6.10;1.00;;;;;;5076592;28;20184;-38
2023/11/24 07:22:08;;;;;;;4.50;2.00;;;6.10;1.00;;;;;;5095907;28;20211;-40
2023/11/24 07:24:38;;;;;;;5.43;2.50;;;6.10;1.00;;;;;;5095097;28;20582;-38
2023/11/24 07:27:04;;;;;;;3.47;2.00;;;6.10;1.00;;;;;;5094234;28;20188;-39
2023/11/24 07:29:30;;;;;;;3.33;2.90;;;6.10;1.00;;;;;;5093498;28;20513;-39
2023/11/24 07:31:55;;;;;;;2.57;2.10;;;6.10;1.00;;;;;;5093706;28;20540;-38
2023/11/24 07:34:21;;;;;;;3.87;2.80;;;6.10;1.00;;;;;;5111354;28;20196;-39
2023/11/24 07:36:46;;;;;;;2.87;2.13;;;6.10;1.00;;;;;;5115191;28;20709;-39
2023/11/24 07:39:15;;;;;;;5.03;3.17;;;6.10;1.00;;;;;;5115304;28;20262;-40
2023/11/24 07:41:41;;;;;;;5.53;2.50;;;6.20;1.00;;;;;;5098409;28;20184;-38
2023/11/24 07:44:07;;;;;;;5.40;2.20;;;6.20;1.00;;;;;;5098285;28;20465;-39
2023/11/24 07:46:32;;;;;;;3.07;2.13;;;6.30;1.00;;;;;;5115745;28;20430;-39
2023/11/24 07:48:58;;;;;;;5.47;2.30;;;6.30;1.00;;;;;;5115602;28;20413;-38
2023/11/24 07:51:24;;;;;;;6.33;2.30;;;6.30;1.00;;;;;;5113664;28;20630;-40
2023/11/24 07:53:49;;;;;;;6.67;1.80;;;6.40;99.90;;;;;;5113587;28;20239;-36
2023/11/24 07:56:15;;;;;;;12.37;3.00;;;6.40;99.90;;;;;;5114072;28;20218;-37
2023/11/24 07:58:41;;;;;;;4.03;2.07;;;6.50;99.90;;;;;;5113285;28;20521;-41
2023/11/24 08:01:06;;;;;;;6.20;2.10;;;6.40;99.90;;;;;;5112809;28;20240;-38
2023/11/24 08:03:32;;;;;;;6.63;4.30;;;6.50;99.90;;;;;;5111911;28;20242;-38
2023/11/24 08:06:06;;;;;;;6.57;2.60;;;6.40;99.90;;;;;;5114493;28;20187;-41
2023/11/24 08:08:32;;;;;;;4.60;2.70;;;6.40;99.90;;;;;;5113133;28;20489;-38
2023/11/24 08:10:57;;;;;;;9.03;2.93;;;6.50;99.90;;;;;;5114412;28;20425;-39
2023/11/24 08:13:23;;;;;;;13.17;3.37;;;6.60;99.90;;;;;;5114210;28;20433;-37
2023/11/24 08:15:49;;;;;;;4.30;2.00;;;6.60;99.90;;;;;;5114185;28;20172;-40
2023/11/24 08:18:14;;;;;;;10.03;3.40;;;6.60;99.90;;;;;;5115185;28;20222;-38
2023/11/24 08:20:41;;;;;;;4.80;2.53;;;6.60;99.90;;;;;;5114918;28;20188;-39
2023/11/24 08:23:07;;;;;;;5.90;2.20;;;6.60;99.90;;;;;;5114945;28;20207;-39
2023/11/24 08:25:34;;;;;;;4.53;2.27;;;6.60;99.90;;;;;;5115232;28;20433;-38
2023/11/24 08:28:00;;;;;;;8.07;2.30;;;6.60;99.90;;;;;;5114462;28;21040;-39
2023/11/24 08:30:26;;;;;;;4.83;2.23;;;6.60;99.90;;;;;;5115564;28;20413;-41
2023/11/24 08:32:51;;;;;;;4.17;1.97;;;6.70;99.90;;;;;;5114752;28;20210;-38
2023/11/24 08:35:17;;;;;;;6.77;2.30;;;6.70;99.90;;;;;;5094690;28;20290;-37
2023/11/24 08:37:43;;;;;;;5.27;1.80;;;6.80;99.90;;;;;;5113863;28;20611;-38
2023/11/24 08:40:14;;;;;;;5.30;2.07;;;7.00;8.30;;;;;;5114458;28;20222;-38
2023/11/24 08:42:40;;;;;;;12.23;2.30;;;7.10;1.00;;;;;;5097032;28;20207;-40
2023/11/24 08:45:07;;;;;;;3.63;2.00;;;7.10;16.10;;;;;;5116206;28;20440;-38
2023/11/24 08:47:32;;;;;;;5.20;2.03;;;7.10;1.00;;;;;;5116877;28;20457;-38
2023/11/24 08:49:58;;;;;;;4.90;2.27;;;7.10;1.00;;;;;;5114792;28;20470;-38
2023/11/24 08:52:23;;;;;;;5.53;2.27;;;7.20;1.00;;;;;;5114844;28;20592;-39
2023/11/24 08:54:49;;;;;;;4.83;2.17;;;7.30;1.00;;;;;;5114973;28;20184;-41
2023/11/24 08:57:16;;;;;;;6.50;2.37;;;7.50;1.00;;;;;;5113585;28;20186;-38
2023/11/24 08:59:42;;;;;;;5.83;2.40;;;7.60;1.00;;;;;;5114823;28;20206;-39
2023/11/24 09:02:08;;;;;;;8.20;3.90;;;7.60;1.00;;;;;;5097609;28;20476;-38
2023/11/24 09:04:35;;;;;;;8.10;3.00;;;7.60;1.00;;;;;;5116291;28;20449;-39
2023/11/24 09:07:01;;;;;;;5.63;2.23;;;7.50;1.00;;;;;;5114525;28;20420;-37
2023/11/24 09:09:28;;;;;;;5.20;2.07;;;7.40;1.00;;;;;;5115041;28;20266;-39
2023/11/24 09:11:54;;;;;;;6.27;2.60;;;7.50;1.00;;;;;;5097851;28;20244;-38
2023/11/24 09:14:25;;;;;;;4.87;2.30;;;7.40;99.90;;;;;;5096501;28;20874;-39
2023/11/24 09:16:51;;;;;;;5.33;2.47;;;7.30;1.00;;;;;;5084032;28;20195;-38
2023/11/24 09:19:17;;;;;;;9.03;3.20;;;7.30;1.00;;;;;;5095280;28;20423;-41
2023/11/24 09:21:42;;;;;;;6.20;3.10;;;7.90;1.00;;;;;;5096027;28;20188;-41
2023/11/24 09:24:10;;;;;;;7.53;2.53;;;8.70;1.00;;;;;;5094183;28;20184;-38
2023/11/24 09:26:36;;;;;;;9.90;3.10;;;9.30;1.00;;;;;;5094256;28;20184;-43
2023/11/24 09:29:01;;;;;;;10.00;3.07;;;9.20;1.00;;;;;;5093308;28;20419;-42
2023/11/24 09:31:27;;;;;;;8.13;3.00;;;10.00;99.90;;;;;;5094343;28;20188;-41
2023/11/24 09:33:53;;;;;;;11.53;2.87;;;10.50;99.90;;;;;;5094008;28;20253;-42
2023/11/24 09:36:19;;;;;;;7.70;3.03;;;10.30;1.00;;;;;;5094131;28;20715;-43
2023/11/24 09:38:46;;;;;;;11.13;2.57;;;10.40;1.00;;;;;;5112079;28;20187;-41
2023/11/24 09:41:13;;;;;;;11.50;2.90;;;9.90;1.00;;;;;;5113461;28;20180;-39
2023/11/24 09:43:39;;;;;;;13.07;3.87;;;9.90;13.30;;;;;;5114974;28;20469;-40
2023/11/24 09:46:05;;;;;;;7.85;3.03;;;10.10;1.00;;;;;;5113956;28;20434;-40
2023/11/24 09:48:34;;;;;;;9.00;3.13;;;10.00;99.90;;;;;;5114107;28;20253;-38
2023/11/24 09:51:03;;;;;;;8.23;2.93;;;9.30;1.00;;;;;;5095221;28;20487;-40
2023/11/24 09:53:33;;;;;;;6.40;2.40;;;9.00;28.60;;;;;;5112679;28;20899;-41
2023/11/24 09:56:03;;;;;;;8.03;2.57;;;8.70;1.00;;;;;;5097318;28;20440;-38
2023/11/24 09:58:32;;;;;;;4.83;2.40;;;8.40;59.70;;;;;;5117590;28;20910;-38
2023/11/24 10:01:05;;;;;;;7.40;2.80;;;8.20;1.00;;;;;;5098113;28;20418;-38
2023/11/24 10:03:37;;;;;;;8.60;2.67;;;8.10;99.90;;;;;;5098171;28;20461;-37
2023/11/24 10:06:04;;;;;;;11.37;4.00;;;8.00;1.00;;;;;;5117002;28;20849;-38
2023/11/24 10:08:30;;;;;;;10.83;3.10;;;7.90;1.00;;;;;;5117811;28;20429;-39
2023/11/24 10:11:09;;;;;;;6.30;2.90;;;7.70;99.90;;;;;;5099553;28;20436;-37
2023/11/24 10:13:35;;;;;;;10.13;2.87;;;7.60;55.80;;;;;;5116816;28;20429;-39
2023/11/24 10:16:04;;;;;;;8.00;3.93;;;7.60;99.90;;;;;;5116624;28;20417;-38
2023/11/24 10:18:30;;;;;;;10.00;3.00;;;7.50;99.90;;;;;;5118514;28;20171;-40
2023/11/24 10:20:59;;;;;;;12.13;3.60;;;7.50;99.90;;;;;;5099313;28;20929;-38
2023/11/24 10:23:28;;;;;;;10.37;3.30;;;7.60;99.90;;;;;;5117066;28;20203;-38
2023/11/24 10:25:54;;;;;;;10.00;3.50;;;7.80;99.90;;;;;;5118918;28;20730;-39
2023/11/24 10:28:19;;;;;;;7.03;3.57;;;7.70;1.00;;;;;;5116900;28;20436;-38
2023/11/24 10:30:46;;;;;;;6.60;3.10;;;7.70;1.00;;;;;;5117629;28;20160;-40
2023/11/24 10:33:14;;;;;;;8.33;4.17;;;7.60;1.00;;;;;;5116611;28;20426;-39
2023/11/24 10:35:39;;;;;;;13.03;3.27;;;7.60;99.90;;;;;;5099815;28;20422;-38
2023/11/24 10:38:06;;;;;;;8.23;2.93;;;7.70;1.00;;;;;;5099122;28;20451;-39
2023/11/24 10:40:32;;;;;;;8.07;3.83;;;7.80;1.00;;;;;;5100292;28;20175;-38
2023/11/24 10:42:58;;;;;;;16.20;4.10;;;8.10;1.00;;;;;;5097999;28;20475;-40
2023/11/24 10:45:25;;;;;;;6.20;2.63;;;8.50;1.00;;;;;;5099364;28;20250;-39
2023/11/24 10:48:15;;;;;;;5.93;2.57;;;8.90;1.00;;;;;;5080543;28;20482;-38
2023/11/24 10:50:42;;;;;;;5.33;2.30;;;9.20;99.90;;;;;;5116664;28;20449;-39
2023/11/24 10:53:30;;;;;;;7.57;2.97;;;9.30;1.00;;;;;;5097498;28;20485;-40
2023/11/24 10:55:57;;;;;;;6.47;2.40;;;10.20;1.00;;;;;;5116964;28;20502;-40
2023/11/24 10:58:25;;;;;;;5.60;2.30;;;10.70;99.90;;;;;;5081311;28;20437;-40
2023/11/24 11:00:52;;;;;;;5.23;2.13;;;11.10;99.90;;;;;;5113531;28;20457;-41
2023/11/24 11:03:18;;;;;;;11.43;2.73;;;11.80;99.90;;;;;;5078844;28;20480;-39
2023/11/24 11:06:08;;;;;;;4.00;1.70;;;13.00;20.60;;;;;;5096775;28;20423;-39
2023/11/24 11:08:44;;;;;;;5.43;2.63;;;13.70;1.00;;;;;;5095212;28;20180;-40
2023/11/24 11:11:32;;;;;;;5.70;2.57;;;14.30;1.00;;;;;;5077842;28;20433;-40
2023/11/24 11:13:58;;;;;;;5.77;2.43;;;13.40;1.00;;;;;;5099445;28;20464;-39
2023/11/24 11:16:23;;;;;;;8.57;2.40;;;13.30;1.00;;;;;;5099027;28;20625;-38
2023/11/24 11:18:49;;;;;;;6.47;2.20;;;13.60;1.00;;;;;;5080226;28;20679;-39
2023/11/24 11:21:31;;;;;;;7.73;2.00;;;13.00;1.00;;;;;;5116268;28;20183;-39
2023/11/24 11:23:57;;;;;;;7.87;2.60;;;12.70;1.00;;;;;;5106088;28;21050;-40
2023/11/24 11:26:45;;;;;;;6.37;2.33;;;12.00;1.00;;;;;;5116104;28;20469;-39
2023/11/24 11:29:14;;;;;;;8.63;3.97;;;11.40;1.00;;;;;;5115937;28;20516;-40
2023/11/24 11:31:44;;;;;;;8.63;2.93;;;11.30;1.00;;;;;;5114631;28;20425;-42
2023/11/24 11:34:16;;;;;;;11.73;3.33;;;11.50;1.00;;;;;;5080305;28;20445;-40
2023/11/24 11:36:51;;;;;;;6.63;2.43;;;10.90;1.00;;;;;;5098176;28;20425;-39
2023/11/24 11:39:21;;;;;;;7.23;2.17;;;10.70;1.00;;;;;;5113259;28;20409;-40
2023/11/24 11:41:50;;;;;;;9.27;4.80;;;11.10;1.00;;;;;;5113259;28;20698;-41
2023/11/24 11:44:18;;;;;;;4.73;1.97;;;11.00;1.00;;;;;;5099078;28;20468;-40
2023/11/24 11:47:08;;;;;;;7.63;2.40;;;10.70;1.00;;;;;;5095908;28;20495;-39
2023/11/24 11:49:33;;;;;;;6.77;2.13;;;10.30;1.00;;;;;;5078454;28;20757;-41
2023/11/24 11:52:04;;;;;;;11.63;2.70;;;9.30;99.90;;;;;;5095815;28;20430;-41
2023/11/24 11:54:29;;;;;;;4.60;1.80;;;8.50;99.90;;;;;;5094346;28;20518;-43
2023/11/24 11:56:55;;;;;;;4.10;2.20;;;7.70;99.90;;;;;;5093983;28;20513;-41
2023/11/24 11:59:21;;;;;;;6.50;2.23;;;7.30;99.90;;;;;;5076434;28;20202;-40
2023/11/24 12:01:47;;;;;;;7.50;2.40;;;7.00;1.00;;;;;;5091012;28;20454;-42
2023/11/24 12:04:15;;;;;;;6.80;3.20;;;6.60;99.90;;;;;;5094704;28;20184;-39
2023/11/24 12:06:40;;;;;;;6.80;3.20;;;6.40;1.00;;;;;;5096886;28;20431;-41
2023/11/24 12:09:08;;;;;;;5.37;3.27;;;6.30;99.90;;;;;;5111597;28;20664;-43
2023/11/24 12:11:34;;;;;;;7.03;2.87;;;6.10;1.00;;;;;;5111147;28;20180;-38
2023/11/24 12:14:00;;;;;;;6.63;3.13;;;6.00;1.00;;;;;;5109916;28;20433;-40
2023/11/24 12:16:28;;;;;;;8.07;2.90;;;6.10;1.00;;;;;;5115064;28;20830;-41
2023/11/24 12:18:55;;;;;;;4.60;2.47;;;6.20;1.00;;;;;;5093934;28;20273;-40
2023/11/24 12:21:21;;;;;;;8.70;3.30;;;6.00;15.10;;;;;;5112898;28;20444;-39
2023/11/24 12:23:48;;;;;;;10.50;3.80;;;5.90;49.00;;;;;;5095895;28;20473;-40
2023/11/24 12:26:17;;;;;;;8.03;2.77;;;5.80;99.90;;;;;;5075166;28;20180;-40
2023/11/24 12:28:43;;;;;;;7.47;2.30;;;5.70;1.00;;;;;;5093931;28;20430;-40
2023/11/24 12:31:10;;;;;;;11.53;3.07;;;5.40;99.90;;;;;;5103208;28;20913;-38
2023/11/24 12:33:39;;;;;;;10.63;3.60;;;5.30;99.90;;;;;;5112926;28;20420;-39
2023/11/24 12:36:05;;;;;;;8.20;3.53;;;5.10;99.90;;;;;;5097016;28;20761;-43
2023/11/24 12:38:32;;;;;;;9.80;3.47;;;5.10;99.90;;;;;;5092866;28;20445;-39
2023/11/24 12:40:58;;;;;;;9.43;3.10;;;5.10;99.90;;;;;;5078945;28;20982;-39
2023/11/24 12:43:23;;;;;;;7.20;3.33;;;5.20;99.90;;;;;;5114667;28;20499;-39
2023/11/24 12:45:51;;;;;;;9.57;2.73;;;5.40;99.90;;;;;;5087799;28;20279;-40
2023/11/24 12:48:35;;;;;;;5.20;2.50;;;5.30;99.90;;;;;;5074187;28;20164;-42
2023/11/24 12:51:01;;;;;;;7.73;3.03;;;5.30;99.90;;;;;;5093154;28;20696;-39
2023/11/24 12:53:28;;;;;;;9.73;3.03;;;5.40;99.90;;;;;;5056549;28;20489;-39
2023/11/24 12:55:54;;;;;;;8.03;3.60;;;5.40;99.90;;;;;;5074843;28;20654;-39
2023/11/24 12:58:20;;;;;;;4.33;2.60;;;5.50;99.90;;;;;;5090857;28;20480;-40
2023/11/24 13:00:47;;;;;;;8.10;3.67;;;5.50;99.90;;;;;;5093480;28;20180;-40